Decoded Metar for LFSI (ST.-DIZIER in FRANCE) (IATA:N/A) | Meteo·Mobile Aviation Weather
aviador You're here:

LFSI Decoded Metar

ST.-DIZIER in FRANCE
Report Time2018-09-21 04:30:00
UTC Time2018-09-21 05:05:13
Flight Rules vfr VFR
Wind210° at 06 kt
W.Decomp.*RWY 29: 0.9 kt HW 5.9 kt LCW
W.Rank210° ranks 5
Current wind is below 210° avg. (7.1)
Visibility9999 m
Phenomena:N/A
Clouds:Overcast 045 Hf
Expected CloudBase > 2,400 ft AGL from Temp-Dew spread
Ceiling4,500 ft
Temp19°C (ISA +5)
Dew Point13°C (68% RH)
AAT17.8°C
QNH1011 hPa
Density Alt1,306 ft
Elevation459 ft
Report Wrong Elevation
Raw Report
METAR LFSI 210430Z AUTO 21006KT 9999 OVC045 19/13 Q1011=

Extra information for LFSI:More info

Metar Taf Metar & Taf Last 4 Metars F.Rules Stats Wind Profile Meteogram Temp Stats Airport Information Weather charts Add Link Nearby VenuesMetar ALERT Operation Metar Decoded Social comments